sensor_id;sensor_type;location;lat;lon;timestamp;P1;durP1;ratioP1;P2;durP2;ratioP2
13327;SDS011;6733;51.044;3.746;2024-03-02T00:00:51;1.17;;;1.00;;
13327;SDS011;6733;51.044;3.746;2024-03-02T00:03:17;1.83;;;1.00;;
13327;SDS011;6733;51.044;3.746;2024-03-02T00:05:48;0.87;;;0.80;;
13327;SDS011;6733;51.044;3.746;2024-03-02T00:08:17;1.73;;;0.90;;
13327;SDS011;6733;51.044;3.746;2024-03-02T00:10:50;2.80;;;1.10;;
13327;SDS011;6733;51.044;3.746;2024-03-02T00:13:16;1.67;;;0.90;;
13327;SDS011;6733;51.044;3.746;2024-03-02T00:15:52;1.10;;;1.00;;
13327;SDS011;6733;51.044;3.746;2024-03-02T00:18:40;1.00;;;0.90;;
13327;SDS011;6733;51.044;3.746;2024-03-02T00:21:06;2.47;;;0.80;;
13327;SDS011;6733;51.044;3.746;2024-03-02T00:23:36;1.07;;;0.73;;
13327;SDS011;6733;51.044;3.746;2024-03-02T00:26:04;2.13;;;1.10;;
13327;SDS011;6733;51.044;3.746;2024-03-02T00:28:34;1.17;;;0.70;;
13327;SDS011;6733;51.044;3.746;2024-03-02T00:31:08;2.10;;;1.10;;
13327;SDS011;6733;51.044;3.746;2024-03-02T00:33:40;2.23;;;1.23;;
13327;SDS011;6733;51.044;3.746;2024-03-02T00:36:14;1.93;;;1.20;;
13327;SDS011;6733;51.044;3.746;2024-03-02T00:38:44;1.10;;;0.90;;
13327;SDS011;6733;51.044;3.746;2024-03-02T00:41:24;1.57;;;1.00;;
13327;SDS011;6733;51.044;3.746;2024-03-02T00:44:03;2.00;;;0.80;;
13327;SDS011;6733;51.044;3.746;2024-03-02T00:49:22;1.40;;;1.10;;
13327;SDS011;6733;51.044;3.746;2024-03-02T00:51:51;2.13;;;1.20;;
13327;SDS011;6733;51.044;3.746;2024-03-02T00:54:19;1.67;;;0.93;;
13327;SDS011;6733;51.044;3.746;2024-03-02T00:56:51;2.90;;;1.13;;
13327;SDS011;6733;51.044;3.746;2024-03-02T00:59:20;1.57;;;1.20;;
13327;SDS011;6733;51.044;3.746;2024-03-02T01:01:47;2.53;;;1.03;;
13327;SDS011;6733;51.044;3.746;2024-03-02T01:04:15;1.13;;;1.00;;
13327;SDS011;6733;51.044;3.746;2024-03-02T01:06:42;1.83;;;1.00;;
13327;SDS011;6733;51.044;3.746;2024-03-02T01:09:09;1.20;;;1.00;;
13327;SDS011;6733;51.044;3.746;2024-03-02T01:11:35;1.57;;;1.00;;
13327;SDS011;6733;51.044;3.746;2024-03-02T01:14:01;1.43;;;1.10;;
13327;SDS011;6733;51.044;3.746;2024-03-02T01:16:27;1.53;;;1.03;;
13327;SDS011;6733;51.044;3.746;2024-03-02T01:18:53;3.43;;;1.50;;
13327;SDS011;6733;51.044;3.746;2024-03-02T01:21:20;1.97;;;1.33;;
13327;SDS011;6733;51.044;3.746;2024-03-02T01:23:46;2.23;;;1.00;;
13327;SDS011;6733;51.044;3.746;2024-03-02T01:26:12;1.67;;;1.20;;
13327;SDS011;6733;51.044;3.746;2024-03-02T01:28:38;1.20;;;1.10;;
13327;SDS011;6733;51.044;3.746;2024-03-02T01:31:04;2.73;;;1.37;;
13327;SDS011;6733;51.044;3.746;2024-03-02T01:33:30;2.10;;;1.30;;
13327;SDS011;6733;51.044;3.746;2024-03-02T01:35:56;3.27;;;1.37;;
13327;SDS011;6733;51.044;3.746;2024-03-02T01:38:23;1.90;;;1.67;;
13327;SDS011;6733;51.044;3.746;2024-03-02T01:40:49;2.87;;;1.40;;
13327;SDS011;6733;51.044;3.746;2024-03-02T01:43:15;3.53;;;1.50;;
13327;SDS011;6733;51.044;3.746;2024-03-02T01:45:41;4.43;;;1.40;;
13327;SDS011;6733;51.044;3.746;2024-03-02T01:48:08;3.60;;;1.60;;
13327;SDS011;6733;51.044;3.746;2024-03-02T01:50:34;1.70;;;1.40;;
13327;SDS011;6733;51.044;3.746;2024-03-02T01:53:01;1.63;;;1.30;;
13327;SDS011;6733;51.044;3.746;2024-03-02T01:55:28;1.73;;;1.20;;
13327;SDS011;6733;51.044;3.746;2024-03-02T01:57:55;2.23;;;1.17;;
13327;SDS011;6733;51.044;3.746;2024-03-02T02:00:23;2.40;;;1.27;;
13327;SDS011;6733;51.044;3.746;2024-03-02T02:02:51;2.50;;;1.57;;
13327;SDS011;6733;51.044;3.746;2024-03-02T02:05:18;2.33;;;1.40;;
13327;SDS011;6733;51.044;3.746;2024-03-02T02:07:44;3.13;;;1.70;;
13327;SDS011;6733;51.044;3.746;2024-03-02T02:10:11;2.27;;;1.43;;
13327;SDS011;6733;51.044;3.746;2024-03-02T02:12:37;2.70;;;1.57;;
13327;SDS011;6733;51.044;3.746;2024-03-02T02:15:04;1.97;;;1.50;;
13327;SDS011;6733;51.044;3.746;2024-03-02T02:17:47;3.60;;;1.37;;
13327;SDS011;6733;51.044;3.746;2024-03-02T02:20:13;3.03;;;1.40;;
13327;SDS011;6733;51.044;3.746;2024-03-02T02:22:39;1.57;;;1.47;;
13327;SDS011;6733;51.044;3.746;2024-03-02T02:25:05;3.20;;;1.60;;
13327;SDS011;6733;51.044;3.746;2024-03-02T02:27:32;2.80;;;1.70;;
13327;SDS011;6733;51.044;3.746;2024-03-02T02:29:58;3.53;;;1.80;;
13327;SDS011;6733;51.044;3.746;2024-03-02T02:32:25;2.83;;;1.83;;
13327;SDS011;6733;51.044;3.746;2024-03-02T02:35:16;4.03;;;1.93;;
13327;SDS011;6733;51.044;3.746;2024-03-02T02:38:07;2.20;;;1.50;;
13327;SDS011;6733;51.044;3.746;2024-03-02T02:40:58;4.07;;;2.10;;
13327;SDS011;6733;51.044;3.746;2024-03-02T02:43:49;4.07;;;1.53;;
13327;SDS011;6733;51.044;3.746;2024-03-02T02:46:40;3.00;;;1.97;;
13327;SDS011;6733;51.044;3.746;2024-03-02T02:49:32;2.83;;;1.80;;
13327;SDS011;6733;51.044;3.746;2024-03-02T02:52:23;2.83;;;1.93;;
13327;SDS011;6733;51.044;3.746;2024-03-02T02:55:14;3.23;;;2.03;;
13327;SDS011;6733;51.044;3.746;2024-03-02T02:58:06;2.23;;;1.90;;
13327;SDS011;6733;51.044;3.746;2024-03-02T03:00:32;3.40;;;1.83;;
13327;SDS011;6733;51.044;3.746;2024-03-02T03:02:58;3.20;;;1.80;;
13327;SDS011;6733;51.044;3.746;2024-03-02T03:05:24;3.57;;;1.90;;
13327;SDS011;6733;51.044;3.746;2024-03-02T03:07:51;3.90;;;1.77;;
13327;SDS011;6733;51.044;3.746;2024-03-02T03:10:17;4.70;;;1.60;;
13327;SDS011;6733;51.044;3.746;2024-03-02T03:12:43;3.53;;;1.67;;
13327;SDS011;6733;51.044;3.746;2024-03-02T03:15:10;3.93;;;1.70;;
13327;SDS011;6733;51.044;3.746;2024-03-02T03:17:37;3.90;;;1.80;;
13327;SDS011;6733;51.044;3.746;2024-03-02T03:20:03;2.20;;;1.50;;
13327;SDS011;6733;51.044;3.746;2024-03-02T03:22:30;3.77;;;1.80;;
13327;SDS011;6733;51.044;3.746;2024-03-02T03:24:57;3.60;;;1.70;;
13327;SDS011;6733;51.044;3.746;2024-03-02T03:27:23;3.40;;;1.50;;
13327;SDS011;6733;51.044;3.746;2024-03-02T03:29:49;2.50;;;1.47;;
13327;SDS011;6733;51.044;3.746;2024-03-02T03:32:16;3.03;;;1.50;;
13327;SDS011;6733;51.044;3.746;2024-03-02T03:34:42;3.53;;;1.43;;
13327;SDS011;6733;51.044;3.746;2024-03-02T03:37:08;1.60;;;1.37;;
13327;SDS011;6733;51.044;3.746;2024-03-02T03:39:35;2.90;;;1.30;;
13327;SDS011;6733;51.044;3.746;2024-03-02T03:42:01;5.23;;;1.47;;
13327;SDS011;6733;51.044;3.746;2024-03-02T03:44:28;3.63;;;1.30;;
13327;SDS011;6733;51.044;3.746;2024-03-02T03:46:54;3.03;;;1.20;;
13327;SDS011;6733;51.044;3.746;2024-03-02T03:49:20;3.80;;;1.20;;
13327;SDS011;6733;51.044;3.746;2024-03-02T03:51:46;2.70;;;1.17;;
13327;SDS011;6733;51.044;3.746;2024-03-02T03:54:12;3.13;;;1.40;;
13327;SDS011;6733;51.044;3.746;2024-03-02T03:56:38;2.50;;;1.33;;
13327;SDS011;6733;51.044;3.746;2024-03-02T03:59:05;3.67;;;1.50;;
13327;SDS011;6733;51.044;3.746;2024-03-02T04:01:31;3.23;;;1.40;;
13327;SDS011;6733;51.044;3.746;2024-03-02T04:03:57;1.53;;;1.27;;
13327;SDS011;6733;51.044;3.746;2024-03-02T04:06:23;2.50;;;1.23;;
13327;SDS011;6733;51.044;3.746;2024-03-02T04:08:51;2.27;;;1.10;;
13327;SDS011;6733;51.044;3.746;2024-03-02T04:11:17;3.30;;;1.10;;
13327;SDS011;6733;51.044;3.746;2024-03-02T04:13:43;2.57;;;1.20;;
13327;SDS011;6733;51.044;3.746;2024-03-02T04:16:09;2.43;;;1.27;;
13327;SDS011;6733;51.044;3.746;2024-03-02T04:18:35;3.03;;;1.20;;
13327;SDS011;6733;51.044;3.746;2024-03-02T04:21:01;1.40;;;1.30;;
13327;SDS011;6733;51.044;3.746;2024-03-02T04:23:27;3.57;;;1.27;;
13327;SDS011;6733;51.044;3.746;2024-03-02T04:25:54;4.93;;;1.50;;
13327;SDS011;6733;51.044;3.746;2024-03-02T04:28:20;3.03;;;1.27;;
13327;SDS011;6733;51.044;3.746;2024-03-02T04:30:46;5.13;;;1.53;;
13327;SDS011;6733;51.044;3.746;2024-03-02T04:33:12;4.83;;;1.40;;
13327;SDS011;6733;51.044;3.746;2024-03-02T04:35:38;2.40;;;1.40;;
13327;SDS011;6733;51.044;3.746;2024-03-02T04:38:04;2.90;;;1.40;;
13327;SDS011;6733;51.044;3.746;2024-03-02T04:40:30;2.70;;;1.30;;
13327;SDS011;6733;51.044;3.746;2024-03-02T04:42:57;3.57;;;1.30;;
13327;SDS011;6733;51.044;3.746;2024-03-02T04:45:24;3.23;;;1.23;;
13327;SDS011;6733;51.044;3.746;2024-03-02T04:47:51;3.03;;;1.10;;
13327;SDS011;6733;51.044;3.746;2024-03-02T04:50:17;2.13;;;1.10;;
13327;SDS011;6733;51.044;3.746;2024-03-02T04:52:43;3.50;;;1.27;;
13327;SDS011;6733;51.044;3.746;2024-03-02T04:55:09;2.17;;;1.30;;
13327;SDS011;6733;51.044;3.746;2024-03-02T04:57:43;3.43;;;1.50;;
13327;SDS011;6733;51.044;3.746;2024-03-02T05:00:09;2.43;;;1.23;;
13327;SDS011;6733;51.044;3.746;2024-03-02T05:02:36;3.07;;;1.23;;
13327;SDS011;6733;51.044;3.746;2024-03-02T05:05:02;2.03;;;1.00;;
13327;SDS011;6733;51.044;3.746;2024-03-02T05:07:28;2.03;;;1.10;;
13327;SDS011;6733;51.044;3.746;2024-03-02T05:09:54;2.67;;;1.20;;
13327;SDS011;6733;51.044;3.746;2024-03-02T05:12:21;3.47;;;1.30;;
13327;SDS011;6733;51.044;3.746;2024-03-02T05:15:06;3.63;;;1.30;;
13327;SDS011;6733;51.044;3.746;2024-03-02T05:17:33;5.23;;;1.37;;
13327;SDS011;6733;51.044;3.746;2024-03-02T05:19:59;4.27;;;1.10;;
13327;SDS011;6733;51.044;3.746;2024-03-02T05:22:25;1.60;;;1.10;;
13327;SDS011;6733;51.044;3.746;2024-03-02T05:24:51;3.07;;;1.13;;
13327;SDS011;6733;51.044;3.746;2024-03-02T05:27:17;3.63;;;1.07;;
13327;SDS011;6733;51.044;3.746;2024-03-02T05:29:43;1.40;;;1.20;;
13327;SDS011;6733;51.044;3.746;2024-03-02T05:32:10;2.57;;;1.20;;
13327;SDS011;6733;51.044;3.746;2024-03-02T05:34:36;4.57;;;1.40;;
13327;SDS011;6733;51.044;3.746;2024-03-02T05:37:02;4.87;;;1.60;;
13327;SDS011;6733;51.044;3.746;2024-03-02T05:39:28;3.07;;;1.40;;
13327;SDS011;6733;51.044;3.746;2024-03-02T05:41:54;2.53;;;1.30;;
13327;SDS011;6733;51.044;3.746;2024-03-02T05:44:21;3.17;;;1.10;;
13327;SDS011;6733;51.044;3.746;2024-03-02T05:46:48;3.73;;;1.20;;
13327;SDS011;6733;51.044;3.746;2024-03-02T05:49:14;2.60;;;1.23;;
13327;SDS011;6733;51.044;3.746;2024-03-02T05:51:40;3.63;;;1.70;;
13327;SDS011;6733;51.044;3.746;2024-03-02T05:54:07;2.63;;;1.03;;
13327;SDS011;6733;51.044;3.746;2024-03-02T05:56:33;3.77;;;1.37;;
13327;SDS011;6733;51.044;3.746;2024-03-02T05:58:59;4.87;;;1.50;;
13327;SDS011;6733;51.044;3.746;2024-03-02T06:01:34;3.40;;;1.20;;
13327;SDS011;6733;51.044;3.746;2024-03-02T06:04:00;2.70;;;1.20;;
13327;SDS011;6733;51.044;3.746;2024-03-02T06:06:26;3.67;;;1.00;;
13327;SDS011;6733;51.044;3.746;2024-03-02T06:08:53;3.97;;;1.57;;
13327;SDS011;6733;51.044;3.746;2024-03-02T06:11:19;4.70;;;1.40;;
13327;SDS011;6733;51.044;3.746;2024-03-02T06:13:46;4.73;;;1.40;;
13327;SDS011;6733;51.044;3.746;2024-03-02T06:16:12;4.67;;;1.57;;
13327;SDS011;6733;51.044;3.746;2024-03-02T06:18:39;4.30;;;1.47;;
13327;SDS011;6733;51.044;3.746;2024-03-02T06:21:05;6.57;;;1.70;;
13327;SDS011;6733;51.044;3.746;2024-03-02T06:23:31;4.77;;;1.30;;
13327;SDS011;6733;51.044;3.746;2024-03-02T06:25:58;3.80;;;1.20;;
13327;SDS011;6733;51.044;3.746;2024-03-02T06:28:24;5.23;;;1.40;;
13327;SDS011;6733;51.044;3.746;2024-03-02T06:30:50;3.37;;;1.30;;
13327;SDS011;6733;51.044;3.746;2024-03-02T06:33:16;3.77;;;1.23;;
13327;SDS011;6733;51.044;3.746;2024-03-02T06:35:42;3.97;;;1.30;;
13327;SDS011;6733;51.044;3.746;2024-03-02T06:38:08;2.63;;;1.30;;
13327;SDS011;6733;51.044;3.746;2024-03-02T06:40:34;5.67;;;1.50;;
13327;SDS011;6733;51.044;3.746;2024-03-02T06:43:03;2.83;;;1.37;;
13327;SDS011;6733;51.044;3.746;2024-03-02T06:45:29;3.23;;;1.40;;
13327;SDS011;6733;51.044;3.746;2024-03-02T06:47:56;8.87;;;1.80;;
13327;SDS011;6733;51.044;3.746;2024-03-02T06:50:22;5.00;;;1.80;;
13327;SDS011;6733;51.044;3.746;2024-03-02T06:52:48;4.13;;;1.50;;
13327;SDS011;6733;51.044;3.746;2024-03-02T06:55:14;4.67;;;1.70;;
13327;SDS011;6733;51.044;3.746;2024-03-02T06:57:41;4.30;;;1.40;;
13327;SDS011;6733;51.044;3.746;2024-03-02T07:00:07;4.07;;;1.50;;
13327;SDS011;6733;51.044;3.746;2024-03-02T07:02:34;4.07;;;1.77;;
13327;SDS011;6733;51.044;3.746;2024-03-02T07:05:03;2.47;;;1.23;;
13327;SDS011;6733;51.044;3.746;2024-03-02T07:07:29;3.37;;;1.60;;
13327;SDS011;6733;51.044;3.746;2024-03-02T07:09:56;2.30;;;1.33;;
13327;SDS011;6733;51.044;3.746;2024-03-02T07:12:22;5.47;;;1.60;;
13327;SDS011;6733;51.044;3.746;2024-03-02T07:14:48;3.67;;;1.30;;
13327;SDS011;6733;51.044;3.746;2024-03-02T07:17:30;4.33;;;1.50;;
13327;SDS011;6733;51.044;3.746;2024-03-02T07:19:56;4.70;;;1.87;;
13327;SDS011;6733;51.044;3.746;2024-03-02T07:22:23;6.17;;;2.30;;
13327;SDS011;6733;51.044;3.746;2024-03-02T07:24:49;5.33;;;2.60;;
13327;SDS011;6733;51.044;3.746;2024-03-02T07:27:16;6.10;;;3.00;;
13327;SDS011;6733;51.044;3.746;2024-03-02T07:29:43;5.97;;;2.57;;
13327;SDS011;6733;51.044;3.746;2024-03-02T07:32:09;8.37;;;2.73;;
13327;SDS011;6733;51.044;3.746;2024-03-02T07:34:36;3.70;;;2.53;;
13327;SDS011;6733;51.044;3.746;2024-03-02T07:37:03;5.93;;;2.50;;
13327;SDS011;6733;51.044;3.746;2024-03-02T07:39:29;6.10;;;2.40;;
13327;SDS011;6733;51.044;3.746;2024-03-02T07:41:56;9.87;;;1.83;;
13327;SDS011;6733;51.044;3.746;2024-03-02T07:44:22;5.00;;;2.30;;
13327;SDS011;6733;51.044;3.746;2024-03-02T07:46:48;5.13;;;1.70;;
13327;SDS011;6733;51.044;3.746;2024-03-02T07:49:18;6.50;;;1.87;;
13327;SDS011;6733;51.044;3.746;2024-03-02T07:51:44;6.87;;;2.00;;
13327;SDS011;6733;51.044;3.746;2024-03-02T07:54:11;4.73;;;1.77;;
13327;SDS011;6733;51.044;3.746;2024-03-02T07:56:37;5.47;;;1.60;;
13327;SDS011;6733;51.044;3.746;2024-03-02T07:59:03;7.10;;;1.67;;
13327;SDS011;6733;51.044;3.746;2024-03-02T08:01:33;7.03;;;2.00;;
13327;SDS011;6733;51.044;3.746;2024-03-02T08:04:00;3.97;;;1.63;;
13327;SDS011;6733;51.044;3.746;2024-03-02T08:06:28;5.33;;;1.53;;
13327;SDS011;6733;51.044;3.746;2024-03-02T08:08:57;7.90;;;2.00;;
13327;SDS011;6733;51.044;3.746;2024-03-02T08:11:24;4.00;;;1.90;;
13327;SDS011;6733;51.044;3.746;2024-03-02T08:13:50;5.07;;;1.73;;
13327;SDS011;6733;51.044;3.746;2024-03-02T08:16:18;5.87;;;1.60;;
13327;SDS011;6733;51.044;3.746;2024-03-02T08:18:47;5.50;;;1.40;;
13327;SDS011;6733;51.044;3.746;2024-03-02T08:21:13;5.80;;;1.50;;
13327;SDS011;6733;51.044;3.746;2024-03-02T08:23:40;5.90;;;1.93;;
13327;SDS011;6733;51.044;3.746;2024-03-02T08:26:11;7.37;;;2.17;;
13327;SDS011;6733;51.044;3.746;2024-03-02T08:28:37;8.27;;;1.60;;
13327;SDS011;6733;51.044;3.746;2024-03-02T08:31:06;7.73;;;2.10;;
13327;SDS011;6733;51.044;3.746;2024-03-02T08:33:33;6.50;;;1.90;;
13327;SDS011;6733;51.044;3.746;2024-03-02T08:35:59;4.93;;;1.73;;
13327;SDS011;6733;51.044;3.746;2024-03-02T08:38:26;6.97;;;2.00;;
13327;SDS011;6733;51.044;3.746;2024-03-02T08:40:52;6.33;;;2.00;;
13327;SDS011;6733;51.044;3.746;2024-03-02T08:43:19;8.00;;;1.93;;
13327;SDS011;6733;51.044;3.746;2024-03-02T08:45:45;5.40;;;1.83;;
13327;SDS011;6733;51.044;3.746;2024-03-02T08:48:12;6.57;;;1.97;;
13327;SDS011;6733;51.044;3.746;2024-03-02T08:50:39;5.43;;;2.07;;
13327;SDS011;6733;51.044;3.746;2024-03-02T08:53:05;6.63;;;2.50;;
13327;SDS011;6733;51.044;3.746;2024-03-02T08:55:31;5.43;;;2.03;;
13327;SDS011;6733;51.044;3.746;2024-03-02T08:57:57;6.07;;;1.80;;
13327;SDS011;6733;51.044;3.746;2024-03-02T09:00:23;5.33;;;1.90;;
13327;SDS011;6733;51.044;3.746;2024-03-02T09:02:50;8.07;;;2.00;;
13327;SDS011;6733;51.044;3.746;2024-03-02T09:05:16;5.33;;;1.80;;
13327;SDS011;6733;51.044;3.746;2024-03-02T09:07:43;5.70;;;1.87;;
13327;SDS011;6733;51.044;3.746;2024-03-02T09:10:09;6.63;;;2.23;;
13327;SDS011;6733;51.044;3.746;2024-03-02T09:12:35;5.77;;;1.53;;
13327;SDS011;6733;51.044;3.746;2024-03-02T09:15:03;8.93;;;2.13;;
13327;SDS011;6733;51.044;3.746;2024-03-02T09:17:29;8.20;;;2.03;;
13327;SDS011;6733;51.044;3.746;2024-03-02T09:19:56;7.40;;;2.00;;
13327;SDS011;6733;51.044;3.746;2024-03-02T09:22:22;7.33;;;1.87;;
13327;SDS011;6733;51.044;3.746;2024-03-02T09:24:48;7.97;;;2.17;;
13327;SDS011;6733;51.044;3.746;2024-03-02T09:27:15;8.67;;;2.07;;
13327;SDS011;6733;51.044;3.746;2024-03-02T09:29:41;5.97;;;1.50;;
13327;SDS011;6733;51.044;3.746;2024-03-02T09:32:08;5.40;;;1.47;;
13327;SDS011;6733;51.044;3.746;2024-03-02T09:34:37;7.50;;;1.53;;
13327;SDS011;6733;51.044;3.746;2024-03-02T09:37:03;4.27;;;1.40;;
13327;SDS011;6733;51.044;3.746;2024-03-02T09:39:30;6.23;;;1.57;;
13327;SDS011;6733;51.044;3.746;2024-03-02T09:41:57;5.80;;;1.47;;
13327;SDS011;6733;51.044;3.746;2024-03-02T09:44:25;8.00;;;1.90;;
13327;SDS011;6733;51.044;3.746;2024-03-02T09:46:52;6.13;;;1.30;;
13327;SDS011;6733;51.044;3.746;2024-03-02T09:49:18;7.07;;;1.50;;
13327;SDS011;6733;51.044;3.746;2024-03-02T09:51:46;3.77;;;1.60;;
13327;SDS011;6733;51.044;3.746;2024-03-02T09:54:15;5.83;;;1.67;;
13327;SDS011;6733;51.044;3.746;2024-03-02T09:56:42;5.87;;;1.60;;
13327;SDS011;6733;51.044;3.746;2024-03-02T09:59:08;10.40;;;1.57;;
13327;SDS011;6733;51.044;3.746;2024-03-02T10:01:34;5.57;;;1.30;;
13327;SDS011;6733;51.044;3.746;2024-03-02T10:04:01;5.17;;;1.33;;
13327;SDS011;6733;51.044;3.746;2024-03-02T10:06:28;6.10;;;1.67;;
13327;SDS011;6733;51.044;3.746;2024-03-02T10:08:55;5.33;;;1.70;;
13327;SDS011;6733;51.044;3.746;2024-03-02T10:11:25;5.10;;;1.30;;
13327;SDS011;6733;51.044;3.746;2024-03-02T10:14:08;6.10;;;1.13;;
13327;SDS011;6733;51.044;3.746;2024-03-02T10:19:15;9.63;;;2.37;;
13327;SDS011;6733;51.044;3.746;2024-03-02T10:21:49;5.67;;;1.80;;
13327;SDS011;6733;51.044;3.746;2024-03-02T10:24:15;7.50;;;1.77;;
13327;SDS011;6733;51.044;3.746;2024-03-02T10:26:42;5.07;;;1.30;;
13327;SDS011;6733;51.044;3.746;2024-03-02T10:29:09;6.27;;;1.60;;
13327;SDS011;6733;51.044;3.746;2024-03-02T10:31:43;6.00;;;1.40;;
13327;SDS011;6733;51.044;3.746;2024-03-02T10:34:10;6.13;;;1.93;;
13327;SDS011;6733;51.044;3.746;2024-03-02T10:36:37;6.40;;;1.60;;
13327;SDS011;6733;51.044;3.746;2024-03-02T10:39:07;5.67;;;1.30;;
13327;SDS011;6733;51.044;3.746;2024-03-02T10:41:37;5.87;;;1.57;;
13327;SDS011;6733;51.044;3.746;2024-03-02T10:44:04;4.60;;;1.13;;
13327;SDS011;6733;51.044;3.746;2024-03-02T10:46:35;8.90;;;1.43;;
13327;SDS011;6733;51.044;3.746;2024-03-02T10:49:03;7.23;;;1.77;;
13327;SDS011;6733;51.044;3.746;2024-03-02T10:51:32;6.93;;;1.73;;
13327;SDS011;6733;51.044;3.746;2024-03-02T10:53:59;8.60;;;1.73;;
13327;SDS011;6733;51.044;3.746;2024-03-02T10:59:03;4.72;;;1.20;;
13327;SDS011;6733;51.044;3.746;2024-03-02T11:01:53;4.95;;;1.50;;
13327;SDS011;6733;51.044;3.746;2024-03-02T11:04:25;5.75;;;2.05;;
13327;SDS011;6733;51.044;3.746;2024-03-02T11:07:04;8.90;;;1.80;;
13327;SDS011;6733;51.044;3.746;2024-03-02T11:09:35;7.03;;;1.45;;
13327;SDS011;6733;51.044;3.746;2024-03-02T11:12:36;4.68;;;1.33;;
13327;SDS011;6733;51.044;3.746;2024-03-02T11:15:05;4.53;;;1.15;;
13327;SDS011;6733;51.044;3.746;2024-03-02T11:17:35;8.27;;;1.70;;
13327;SDS011;6733;51.044;3.746;2024-03-02T11:20:03;4.28;;;1.50;;
13327;SDS011;6733;51.044;3.746;2024-03-02T11:22:30;6.07;;;1.30;;
13327;SDS011;6733;51.044;3.746;2024-03-02T11:24:56;5.28;;;1.65;;
13327;SDS011;6733;51.044;3.746;2024-03-02T11:30:56;4.50;;;1.60;;
13327;SDS011;6733;51.044;3.746;2024-03-02T11:33:00;5.35;;;1.30;;
13327;SDS011;6733;51.044;3.746;2024-03-02T11:35:42;9.10;;;1.90;;
13327;SDS011;6733;51.044;3.746;2024-03-02T11:38:12;4.60;;;1.48;;
13327;SDS011;6733;51.044;3.746;2024-03-02T11:40:39;6.97;;;1.60;;
13327;SDS011;6733;51.044;3.746;2024-03-02T11:43:06;4.97;;;1.60;;
13327;SDS011;6733;51.044;3.746;2024-03-02T11:45:33;5.32;;;1.42;;
13327;SDS011;6733;51.044;3.746;2024-03-02T11:48:05;9.63;;;1.70;;
13327;SDS011;6733;51.044;3.746;2024-03-02T11:52:59;5.53;;;1.60;;
13327;SDS011;6733;51.044;3.746;2024-03-02T11:55:26;3.58;;;1.45;;
13327;SDS011;6733;51.044;3.746;2024-03-02T11:57:52;7.40;;;1.58;;
13327;SDS011;6733;51.044;3.746;2024-03-02T12:00:19;5.70;;;1.23;;
13327;SDS011;6733;51.044;3.746;2024-03-02T12:02:46;2.75;;;1.10;;
13327;SDS011;6733;51.044;3.746;2024-03-02T12:05:24;3.53;;;1.60;;
13327;SDS011;6733;51.044;3.746;2024-03-02T12:07:59;6.32;;;1.80;;
13327;SDS011;6733;51.044;3.746;2024-03-02T12:10:35;7.30;;;3.10;;
13327;SDS011;6733;51.044;3.746;2024-03-02T12:13:03;9.95;;;4.20;;
13327;SDS011;6733;51.044;3.746;2024-03-02T12:15:32;6.40;;;3.03;;
13327;SDS011;6733;51.044;3.746;2024-03-02T12:18:00;5.00;;;2.15;;
13327;SDS011;6733;51.044;3.746;2024-03-02T12:20:27;6.38;;;3.15;;
13327;SDS011;6733;51.044;3.746;2024-03-02T12:22:57;7.85;;;2.30;;
13327;SDS011;6733;51.044;3.746;2024-03-02T12:25:25;5.32;;;1.70;;
13327;SDS011;6733;51.044;3.746;2024-03-02T12:27:53;16.70;;;8.82;;
13327;SDS011;6733;51.044;3.746;2024-03-02T12:30:20;6.60;;;3.03;;
13327;SDS011;6733;51.044;3.746;2024-03-02T12:32:47;6.03;;;2.67;;
13327;SDS011;6733;51.044;3.746;2024-03-02T12:35:14;9.23;;;2.55;;
13327;SDS011;6733;51.044;3.746;2024-03-02T12:37:42;8.73;;;3.13;;
13327;SDS011;6733;51.044;3.746;2024-03-02T12:40:10;6.03;;;2.78;;
13327;SDS011;6733;51.044;3.746;2024-03-02T12:42:37;2.95;;;1.38;;
13327;SDS011;6733;51.044;3.746;2024-03-02T12:45:04;4.32;;;1.80;;
13327;SDS011;6733;51.044;3.746;2024-03-02T12:47:31;5.20;;;2.10;;
13327;SDS011;6733;51.044;3.746;2024-03-02T12:49:58;6.03;;;2.88;;
13327;SDS011;6733;51.044;3.746;2024-03-02T12:52:25;10.15;;;3.88;;
13327;SDS011;6733;51.044;3.746;2024-03-02T12:54:51;6.47;;;2.53;;
13327;SDS011;6733;51.044;3.746;2024-03-02T12:57:24;7.68;;;2.58;;
13327;SDS011;6733;51.044;3.746;2024-03-02T12:59:58;5.90;;;3.15;;
13327;SDS011;6733;51.044;3.746;2024-03-02T13:02:28;8.13;;;4.80;;
13327;SDS011;6733;51.044;3.746;2024-03-02T13:04:57;10.25;;;4.55;;
13327;SDS011;6733;51.044;3.746;2024-03-02T13:07:24;6.97;;;3.13;;
13327;SDS011;6733;51.044;3.746;2024-03-02T13:09:51;8.95;;;4.82;;
13327;SDS011;6733;51.044;3.746;2024-03-02T13:12:19;11.90;;;5.63;;
13327;SDS011;6733;51.044;3.746;2024-03-02T13:14:47;8.20;;;3.60;;
13327;SDS011;6733;51.044;3.746;2024-03-02T13:17:15;9.10;;;2.03;;
13327;SDS011;6733;51.044;3.746;2024-03-02T13:22:21;6.07;;;1.80;;
13327;SDS011;6733;51.044;3.746;2024-03-02T13:24:49;3.97;;;1.50;;
13327;SDS011;6733;51.044;3.746;2024-03-02T13:27:17;3.13;;;1.55;;
13327;SDS011;6733;51.044;3.746;2024-03-02T13:29:46;5.35;;;1.40;;
13327;SDS011;6733;51.044;3.746;2024-03-02T13:32:14;5.13;;;1.38;;
13327;SDS011;6733;51.044;3.746;2024-03-02T13:34:40;5.32;;;1.80;;
13327;SDS011;6733;51.044;3.746;2024-03-02T13:37:07;7.72;;;1.85;;
13327;SDS011;6733;51.044;3.746;2024-03-02T13:39:33;5.38;;;1.65;;
13327;SDS011;6733;51.044;3.746;2024-03-02T13:42:08;3.40;;;1.83;;
13327;SDS011;6733;51.044;3.746;2024-03-02T13:44:36;5.80;;;1.52;;
13327;SDS011;6733;51.044;3.746;2024-03-02T13:47:03;4.90;;;1.90;;
13327;SDS011;6733;51.044;3.746;2024-03-02T13:49:30;7.03;;;1.77;;
13327;SDS011;6733;51.044;3.746;2024-03-02T13:52:05;4.50;;;1.40;;
13327;SDS011;6733;51.044;3.746;2024-03-02T13:54:42;4.35;;;1.90;;
13327;SDS011;6733;51.044;3.746;2024-03-02T13:57:11;9.70;;;2.08;;
13327;SDS011;6733;51.044;3.746;2024-03-02T13:59:38;4.93;;;1.80;;
13327;SDS011;6733;51.044;3.746;2024-03-02T14:02:04;7.13;;;1.70;;
13327;SDS011;6733;51.044;3.746;2024-03-02T14:04:32;4.93;;;1.67;;
13327;SDS011;6733;51.044;3.746;2024-03-02T14:06:59;4.15;;;1.60;;
13327;SDS011;6733;51.044;3.746;2024-03-02T14:09:26;8.32;;;2.97;;
13327;SDS011;6733;51.044;3.746;2024-03-02T14:11:53;5.75;;;2.70;;
13327;SDS011;6733;51.044;3.746;2024-03-02T14:14:19;4.50;;;1.40;;
13327;SDS011;6733;51.044;3.746;2024-03-02T14:16:46;5.13;;;1.95;;
13327;SDS011;6733;51.044;3.746;2024-03-02T14:19:12;6.57;;;1.88;;
13327;SDS011;6733;51.044;3.746;2024-03-02T14:21:39;7.00;;;1.50;;
13327;SDS011;6733;51.044;3.746;2024-03-02T14:24:06;6.07;;;1.58;;
13327;SDS011;6733;51.044;3.746;2024-03-02T14:26:35;3.45;;;1.52;;
13327;SDS011;6733;51.044;3.746;2024-03-02T14:29:05;5.05;;;1.90;;
13327;SDS011;6733;51.044;3.746;2024-03-02T14:31:31;5.43;;;2.00;;
13327;SDS011;6733;51.044;3.746;2024-03-02T14:33:58;5.40;;;1.88;;
13327;SDS011;6733;51.044;3.746;2024-03-02T14:36:25;5.18;;;2.25;;
13327;SDS011;6733;51.044;3.746;2024-03-02T14:38:53;5.97;;;2.20;;
13327;SDS011;6733;51.044;3.746;2024-03-02T14:41:20;10.57;;;5.05;;
13327;SDS011;6733;51.044;3.746;2024-03-02T14:43:46;12.52;;;5.63;;
13327;SDS011;6733;51.044;3.746;2024-03-02T14:46:12;5.53;;;2.22;;
13327;SDS011;6733;51.044;3.746;2024-03-02T14:48:38;9.80;;;2.40;;
13327;SDS011;6733;51.044;3.746;2024-03-02T14:51:05;11.55;;;5.82;;
13327;SDS011;6733;51.044;3.746;2024-03-02T14:53:31;8.77;;;3.58;;
13327;SDS011;6733;51.044;3.746;2024-03-02T14:55:57;10.60;;;5.18;;
13327;SDS011;6733;51.044;3.746;2024-03-02T14:58:23;7.43;;;2.42;;
13327;SDS011;6733;51.044;3.746;2024-03-02T15:00:50;4.47;;;1.60;;
13327;SDS011;6733;51.044;3.746;2024-03-02T15:03:16;2.63;;;1.50;;
13327;SDS011;6733;51.044;3.746;2024-03-02T15:05:42;4.00;;;1.70;;
13327;SDS011;6733;51.044;3.746;2024-03-02T15:08:08;3.88;;;1.73;;
13327;SDS011;6733;51.044;3.746;2024-03-02T15:10:35;4.57;;;1.42;;
13327;SDS011;6733;51.044;3.746;2024-03-02T15:13:01;2.67;;;1.20;;
13327;SDS011;6733;51.044;3.746;2024-03-02T15:15:28;6.18;;;1.55;;
13327;SDS011;6733;51.044;3.746;2024-03-02T15:17:54;4.00;;;1.60;;
13327;SDS011;6733;51.044;3.746;2024-03-02T15:20:20;5.55;;;1.63;;
13327;SDS011;6733;51.044;3.746;2024-03-02T15:22:47;3.42;;;1.33;;